createdAt,value
2022-12-08T00:01:22.080Z,14.40
2022-12-08T00:03:49.581Z,15.32
2022-12-08T00:06:37.556Z,14.60
2022-12-08T00:09:22.917Z,15.07
2022-12-08T00:12:05.602Z,16.05
2022-12-08T00:14:35.561Z,15.50
2022-12-08T00:17:03.529Z,15.80
2022-12-08T00:19:31.002Z,15.75
2022-12-08T00:21:58.462Z,15.18
2022-12-08T00:24:30.554Z,14.68
2022-12-08T00:26:57.352Z,14.75
2022-12-08T00:29:24.324Z,14.25
2022-12-08T00:31:51.277Z,15.10
2022-12-08T00:34:18.588Z,15.75
2022-12-08T00:36:45.602Z,16.05
2022-12-08T00:39:14.750Z,15.48
2022-12-08T00:42:00.370Z,15.57
2022-12-08T00:44:27.578Z,14.57
2022-12-08T00:46:54.778Z,14.35
2022-12-08T00:49:21.824Z,14.85
2022-12-08T00:51:48.850Z,14.57
2022-12-08T00:54:15.670Z,15.63
2022-12-08T00:56:42.524Z,14.10
2022-12-08T00:59:09.791Z,15.00
2022-12-08T01:01:37.232Z,14.68
2022-12-08T01:04:08.307Z,15.80
2022-12-08T01:06:36.189Z,14.18
2022-12-08T01:09:04.775Z,15.07
2022-12-08T01:11:31.843Z,14.40
2022-12-08T01:13:58.585Z,13.63
2022-12-08T01:16:31.517Z,14.80
2022-12-08T01:18:59.643Z,15.23
2022-12-08T01:21:26.834Z,16.13
2022-12-08T01:23:53.991Z,15.27
2022-12-08T01:26:20.862Z,15.25
2022-12-08T01:28:48.285Z,15.80
2022-12-08T01:31:18.416Z,14.68
2022-12-08T01:33:45.897Z,14.90
2022-12-08T01:36:23.065Z,15.25
2022-12-08T01:38:50.248Z,15.35
2022-12-08T01:41:18.874Z,15.43
2022-12-08T01:43:56.690Z,14.35
2022-12-08T01:46:24.158Z,14.57
2022-12-08T01:48:54.073Z,15.07
2022-12-08T01:51:21.386Z,15.75
2022-12-08T01:53:49.457Z,15.60
2022-12-08T01:56:34.220Z,15.98
2022-12-08T01:59:01.245Z,16.08
2022-12-08T02:01:28.340Z,16.70
2022-12-08T02:04:02.904Z,18.52
2022-12-08T02:06:33.673Z,21.55
2022-12-08T02:09:01.734Z,20.17
2022-12-08T02:11:29.283Z,19.27
2022-12-08T02:13:57.730Z,18.38
2022-12-08T02:16:43.039Z,17.17
2022-12-08T02:19:33.102Z,17.45
2022-12-08T02:22:18.629Z,16.50
2022-12-08T02:25:10.062Z,17.93
2022-12-08T02:28:13.632Z,17.48
2022-12-08T02:31:00.949Z,16.23
2022-12-08T02:33:51.925Z,16.25
2022-12-08T02:36:37.341Z,17.88
2022-12-08T02:39:07.092Z,16.05
2022-12-08T02:41:54.753Z,16.52
2022-12-08T02:44:33.105Z,16.50
2022-12-08T02:47:07.127Z,16.95
2022-12-08T02:49:35.551Z,16.23
2022-12-08T02:52:25.391Z,17.42
2022-12-08T02:54:57.089Z,16.98
2022-12-08T02:57:48.633Z,16.98
2022-12-08T03:00:21.774Z,16.65
2022-12-08T03:03:00.767Z,18.35
2022-12-08T03:05:45.723Z,18.52
2022-12-08T03:08:23.207Z,17.45
2022-12-08T03:11:09.485Z,18.15
2022-12-08T03:13:43.648Z,18.13
2022-12-08T03:16:14.470Z,16.65
2022-12-08T03:18:47.385Z,16.58
2022-12-08T03:21:16.889Z,17.58
2022-12-08T03:23:46.426Z,18.17
2022-12-08T03:26:21.612Z,17.38
2022-12-08T03:28:48.503Z,16.25
2022-12-08T03:31:18.292Z,16.90
2022-12-08T03:33:49.719Z,19.58
2022-12-08T03:36:16.822Z,21.42
2022-12-08T03:38:46.375Z,23.88
2022-12-08T03:41:19.674Z,19.17
2022-12-08T03:43:48.659Z,17.77
2022-12-08T03:46:17.183Z,17.08
2022-12-08T03:48:44.101Z,16.02
2022-12-08T03:51:11.333Z,15.70
2022-12-08T03:53:38.563Z,16.25
2022-12-08T03:56:13.079Z,16.98
2022-12-08T03:58:39.828Z,21.75
2022-12-08T04:01:06.609Z,22.75
2022-12-08T04:03:33.506Z,20.40
2022-12-08T04:06:00.306Z,19.15
2022-12-08T04:08:27.238Z,19.20
2022-12-08T04:10:54.084Z,19.17
2022-12-08T04:13:20.915Z,18.70
2022-12-08T04:15:48.779Z,19.75
2022-12-08T04:18:16.239Z,16.45
2022-12-08T04:20:44.449Z,17.67
2022-12-08T04:23:12.358Z,17.20
2022-12-08T04:25:39.760Z,16.73
2022-12-08T04:28:06.735Z,18.05
2022-12-08T04:30:34.529Z,18.55
2022-12-08T04:33:01.543Z,19.42
2022-12-08T04:35:28.899Z,20.17
2022-12-08T04:37:55.668Z,20.70
2022-12-08T04:40:22.668Z,20.55
2022-12-08T04:42:49.537Z,19.25
2022-12-08T04:45:16.419Z,19.13
2022-12-08T04:47:43.654Z,17.20
2022-12-08T04:50:10.761Z,18.13
2022-12-08T04:52:37.586Z,17.48
2022-12-08T04:55:04.753Z,17.38
2022-12-08T04:57:31.678Z,18.42
2022-12-08T04:59:58.496Z,19.67
2022-12-08T05:02:25.616Z,21.17
2022-12-08T05:04:52.368Z,21.90
2022-12-08T05:07:19.158Z,22.52
2022-12-08T05:09:45.980Z,21.98
2022-12-08T05:12:13.269Z,21.42
2022-12-08T05:14:40.065Z,20.15
2022-12-08T05:17:09.720Z,23.00
2022-12-08T05:19:36.782Z,22.10
2022-12-08T05:22:03.601Z,22.45
2022-12-08T05:24:30.395Z,20.23
2022-12-08T05:26:57.175Z,21.30
2022-12-08T05:29:24.107Z,21.60
2022-12-08T05:31:51.195Z,23.67
2022-12-08T05:34:18.082Z,23.70
2022-12-08T05:36:47.522Z,26.65
2022-12-08T05:39:14.994Z,23.08
2022-12-08T05:41:41.985Z,22.75
2022-12-08T05:44:09.224Z,23.98
2022-12-08T05:46:36.596Z,25.75
2022-12-08T05:49:06.775Z,27.50
2022-12-08T05:51:33.500Z,24.20
2022-12-08T05:54:00.689Z,23.25
2022-12-08T05:56:27.454Z,23.83
2022-12-08T05:58:54.271Z,21.65
2022-12-08T06:01:29.876Z,28.00
2022-12-08T06:03:58.763Z,48.92
2022-12-08T06:06:25.979Z,25.65
2022-12-08T06:08:53.160Z,24.42
2022-12-08T06:11:25.020Z,35.40
2022-12-08T06:13:52.478Z,30.17
2022-12-08T06:16:19.833Z,39.30
2022-12-08T06:18:46.714Z,33.38
2022-12-08T06:21:15.059Z,22.92
2022-12-08T06:23:42.789Z,22.95
2022-12-08T06:26:13.314Z,24.83
2022-12-08T06:28:41.262Z,45.15
2022-12-08T06:31:18.098Z,28.48
2022-12-08T06:33:45.259Z,28.30
2022-12-08T06:36:14.486Z,21.40
2022-12-08T06:38:43.643Z,26.40
2022-12-08T06:41:12.182Z,20.90
2022-12-08T06:43:39.617Z,19.30
2022-12-08T06:46:08.644Z,22.25
2022-12-08T06:48:35.559Z,24.45
2022-12-08T06:51:23.499Z,22.45
2022-12-08T06:53:51.003Z,21.98
2022-12-08T06:56:20.072Z,22.73
2022-12-08T06:58:52.074Z,26.10
2022-12-08T07:01:19.797Z,20.92
2022-12-08T07:03:47.907Z,22.92
2022-12-08T07:06:16.875Z,24.95
2022-12-08T07:08:44.009Z,24.90
2022-12-08T07:11:15.311Z,23.00
2022-12-08T07:13:45.088Z,21.55
2022-12-08T07:16:12.881Z,25.38
2022-12-08T07:18:40.058Z,22.08
2022-12-08T07:21:09.888Z,21.70
2022-12-08T07:23:37.464Z,23.05
2022-12-08T07:26:06.147Z,25.45
2022-12-08T07:28:34.365Z,24.50
2022-12-08T07:31:01.888Z,23.92
2022-12-08T07:33:28.829Z,25.25
2022-12-08T07:36:00.626Z,26.08
2022-12-08T07:38:28.106Z,25.77
2022-12-08T07:40:55.180Z,25.48
2022-12-08T07:43:22.895Z,24.77
2022-12-08T07:45:50.989Z,25.02
2022-12-08T07:48:18.786Z,25.25
2022-12-08T07:50:46.050Z,26.02
2022-12-08T07:53:13.059Z,26.70
2022-12-08T07:55:44.171Z,26.27
2022-12-08T07:58:11.501Z,24.55
2022-12-08T08:00:38.375Z,26.52
2022-12-08T08:03:06.178Z,26.17
2022-12-08T08:05:33.060Z,27.58
2022-12-08T08:07:59.943Z,28.15
2022-12-08T08:10:26.791Z,26.33
2022-12-08T08:12:53.654Z,27.58
2022-12-08T08:15:21.338Z,24.85
2022-12-08T08:17:51.841Z,24.95
2022-12-08T08:20:19.800Z,24.05
2022-12-08T08:22:50.948Z,24.60
2022-12-08T08:25:19.292Z,25.88
2022-12-08T08:27:46.806Z,26.73
2022-12-08T08:30:19.877Z,27.33
2022-12-08T08:32:48.375Z,32.72
2022-12-08T08:35:15.428Z,25.70
2022-12-08T08:37:47.219Z,28.95
2022-12-08T08:40:16.628Z,28.58
2022-12-08T08:42:43.377Z,25.60
2022-12-08T08:45:10.526Z,22.95
2022-12-08T08:47:37.316Z,22.92
2022-12-08T08:50:04.978Z,24.52
2022-12-08T08:52:32.089Z,25.25
2022-12-08T08:54:58.884Z,24.20
2022-12-08T08:57:26.268Z,25.80
2022-12-08T08:59:54.095Z,28.23
2022-12-08T09:02:21.529Z,29.38
2022-12-08T09:04:48.638Z,27.75
2022-12-08T09:07:16.049Z,28.58
2022-12-08T09:09:43.490Z,27.27
2022-12-08T09:12:10.678Z,29.45
2022-12-08T09:14:37.437Z,29.90
2022-12-08T09:17:04.603Z,26.83
2022-12-08T09:19:31.453Z,27.23
2022-12-08T09:21:58.241Z,25.38
2022-12-08T09:24:25.093Z,28.02
2022-12-08T09:26:51.956Z,30.15
2022-12-08T09:29:18.752Z,30.38
2022-12-08T09:31:45.627Z,29.48
2022-12-08T09:34:12.898Z,25.30
2022-12-08T09:36:40.482Z,29.98
2022-12-08T09:39:07.460Z,28.33
2022-12-08T09:41:44.866Z,26.85
2022-12-08T09:44:39.298Z,23.80
2022-12-08T09:47:38.737Z,28.38
2022-12-08T09:50:37.358Z,23.73
2022-12-08T09:53:12.025Z,24.60
2022-12-08T09:56:11.128Z,24.65
2022-12-08T09:59:01.621Z,27.70
2022-12-08T10:01:32.072Z,23.50
2022-12-08T10:03:59.256Z,22.58
2022-12-08T10:06:48.471Z,23.38
2022-12-08T10:09:22.691Z,22.85
2022-12-08T10:11:55.835Z,26.92
2022-12-08T10:14:37.850Z,25.73
2022-12-08T10:17:26.766Z,28.30
2022-12-08T10:20:02.227Z,26.38
2022-12-08T10:22:35.889Z,30.05
2022-12-08T10:25:15.461Z,29.33
2022-12-08T10:27:42.416Z,29.52
2022-12-08T10:30:13.527Z,29.92
2022-12-08T10:32:45.275Z,28.33
2022-12-08T10:35:14.896Z,27.27
2022-12-08T10:37:54.796Z,25.65
2022-12-08T10:40:21.591Z,24.80
2022-12-08T10:42:53.486Z,25.55
2022-12-08T10:45:30.396Z,25.40
2022-12-08T10:47:59.681Z,26.42
2022-12-08T10:50:54.703Z,27.98
2022-12-08T10:53:30.385Z,24.95
2022-12-08T10:56:03.138Z,26.45
2022-12-08T10:58:29.945Z,26.67
2022-12-08T11:01:13.386Z,27.10
2022-12-08T11:04:03.868Z,25.27
2022-12-08T11:06:30.576Z,22.60
2022-12-08T11:09:41.025Z,26.35
2022-12-08T11:12:20.371Z,23.73
2022-12-08T11:15:01.080Z,26.33
2022-12-08T11:17:29.764Z,27.48
2022-12-08T11:20:00.915Z,29.00
2022-12-08T11:22:32.438Z,25.60
2022-12-08T11:25:22.343Z,28.85
2022-12-08T11:27:50.938Z,25.63
2022-12-08T11:30:18.418Z,24.38
2022-12-08T11:32:48.161Z,26.98
2022-12-08T11:35:39.992Z,26.40
2022-12-08T11:38:21.584Z,25.70
2022-12-08T11:40:53.313Z,29.05
2022-12-08T11:43:30.480Z,28.60
2022-12-08T11:46:20.140Z,28.80
2022-12-08T11:49:05.659Z,28.65
2022-12-08T11:54:15.685Z,25.17
2022-12-08T11:56:49.519Z,29.88
2022-12-08T11:59:28.395Z,32.72
2022-12-08T12:01:55.419Z,32.00
2022-12-08T12:04:50.737Z,37.10
2022-12-08T12:07:33.590Z,32.80
2022-12-08T12:10:06.511Z,34.35
2022-12-08T12:12:58.266Z,34.95
2022-12-08T12:15:55.078Z,24.55
2022-12-08T12:18:37.882Z,25.08
2022-12-08T12:21:13.068Z,24.40
2022-12-08T12:23:47.759Z,26.00
2022-12-08T12:26:22.246Z,25.40
2022-12-08T12:28:55.963Z,28.05
2022-12-08T12:31:28.628Z,25.55
2022-12-08T12:34:05.142Z,26.77
2022-12-08T12:36:32.679Z,28.92
2022-12-08T12:39:01.134Z,29.20
2022-12-08T12:41:32.855Z,30.15
2022-12-08T12:44:13.157Z,29.40
2022-12-08T12:46:53.311Z,28.55
2022-12-08T12:49:41.109Z,31.45
2022-12-08T12:52:10.982Z,29.92
2022-12-08T12:55:02.649Z,32.72
2022-12-08T12:57:58.914Z,32.13
2022-12-08T13:00:27.628Z,31.77
2022-12-08T13:02:58.022Z,31.50
2022-12-08T13:05:32.300Z,32.53
2022-12-08T13:08:00.281Z,30.60
2022-12-08T13:10:33.950Z,33.17
2022-12-08T13:13:12.608Z,27.40
2022-12-08T13:15:47.094Z,24.17
2022-12-08T13:18:23.578Z,28.05
2022-12-08T13:21:15.088Z,27.95
2022-12-08T13:23:42.376Z,32.20
2022-12-08T13:26:11.829Z,30.67
2022-12-08T13:29:07.079Z,30.58
2022-12-08T13:31:57.295Z,30.25
2022-12-08T13:34:45.684Z,27.27
2022-12-08T13:37:12.713Z,24.00
2022-12-08T13:39:39.449Z,27.67
2022-12-08T13:42:12.694Z,29.00
2022-12-08T13:45:21.418Z,38.60
2022-12-08T13:47:54.337Z,33.50
2022-12-08T13:59:18.570Z,41.08
2022-12-08T14:01:48.684Z,29.13
2022-12-08T14:07:11.129Z,34.38
2022-12-08T14:09:38.116Z,38.53
2022-12-08T14:12:09.177Z,30.83
2022-12-08T14:15:05.088Z,35.47
2022-12-08T14:17:33.036Z,34.63
2022-12-08T14:20:24.867Z,30.27
2022-12-08T14:22:52.649Z,32.45
2022-12-08T14:25:20.730Z,38.38
2022-12-08T14:27:48.723Z,35.03
2022-12-08T14:30:26.198Z,33.30
2022-12-08T14:32:55.920Z,35.97
2022-12-08T14:35:27.141Z,51.30
2022-12-08T14:38:02.482Z,56.15
2022-12-08T14:40:38.437Z,44.65
2022-12-08T14:43:08.089Z,32.63
2022-12-08T14:45:35.558Z,32.78
2022-12-08T14:48:26.514Z,53.28
2022-12-08T14:51:07.500Z,35.25
2022-12-08T14:54:09.721Z,43.53
2022-12-08T14:56:36.511Z,41.80
2022-12-08T14:59:12.196Z,49.13
2022-12-08T15:01:39.884Z,41.15
2022-12-08T15:04:08.883Z,38.72
2022-12-08T15:06:36.223Z,66.72
2022-12-08T15:09:28.812Z,43.75
2022-12-08T15:12:06.638Z,54.15
2022-12-08T15:14:35.910Z,37.53
2022-12-08T15:17:03.681Z,40.35
2022-12-08T15:19:33.010Z,41.53
2022-12-08T15:22:22.694Z,32.67
2022-12-08T15:24:49.485Z,41.97
2022-12-08T15:27:22.612Z,34.05
2022-12-08T15:29:49.771Z,33.67
2022-12-08T15:32:19.603Z,41.28
2022-12-08T15:34:46.635Z,43.47
2022-12-08T15:37:20.357Z,36.95
2022-12-08T15:39:47.168Z,47.22
2022-12-08T15:42:13.978Z,42.50
2022-12-08T15:44:41.556Z,43.15
2022-12-08T15:47:22.650Z,49.85
2022-12-08T15:49:51.531Z,41.42
2022-12-08T15:52:23.757Z,43.45
2022-12-08T15:54:51.091Z,48.67
2022-12-08T15:57:53.481Z,46.53
2022-12-08T16:04:09.328Z,42.70
2022-12-08T16:09:36.462Z,51.67
2022-12-08T16:12:22.549Z,43.28
2022-12-08T16:17:37.518Z,45.50
2022-12-08T16:20:07.174Z,49.15
2022-12-08T16:25:22.649Z,42.58
2022-12-08T16:28:17.458Z,39.53
2022-12-08T16:30:41.708Z,38.13
2022-12-08T16:33:10.434Z,43.13
2022-12-08T16:35:37.283Z,44.47
2022-12-08T16:38:04.644Z,41.03
2022-12-08T16:40:31.933Z,33.17
2022-12-08T16:42:58.776Z,30.67
2022-12-08T16:45:28.330Z,43.33
2022-12-08T16:47:57.800Z,40.03
2022-12-08T16:50:31.072Z,44.80
2022-12-08T16:53:03.381Z,43.60
2022-12-08T16:55:30.786Z,41.15
2022-12-08T16:57:57.578Z,47.22
2022-12-08T17:00:26.999Z,42.85
2022-12-08T17:02:54.741Z,50.95
2022-12-08T17:05:23.425Z,34.13
2022-12-08T17:07:52.310Z,45.28
2022-12-08T17:10:23.153Z,47.85
2022-12-08T17:12:50.872Z,34.60
2022-12-08T17:15:20.605Z,41.88
2022-12-08T17:17:47.551Z,37.05
2022-12-08T17:20:23.340Z,31.23
2022-12-08T17:22:50.611Z,39.85
2022-12-08T17:25:17.456Z,58.17
2022-12-08T17:27:44.213Z,42.65
2022-12-08T17:30:15.491Z,45.35
2022-12-08T17:32:43.110Z,34.00
2022-12-08T17:35:10.285Z,36.03
2022-12-08T17:37:37.099Z,46.72
2022-12-08T17:40:05.023Z,39.95
2022-12-08T17:42:31.964Z,40.63
2022-12-08T17:44:58.740Z,35.63
2022-12-08T17:47:25.625Z,42.25
2022-12-08T17:49:52.747Z,35.50
2022-12-08T17:52:19.714Z,39.28
2022-12-08T17:54:46.423Z,24.33
2022-12-08T17:57:13.216Z,25.50
2022-12-08T17:59:40.029Z,29.00
2022-12-08T18:02:06.920Z,22.00
2022-12-08T18:04:33.726Z,20.35
2022-12-08T18:07:01.430Z,26.63
2022-12-08T18:09:30.930Z,19.88
2022-12-08T18:11:57.743Z,23.33
2022-12-08T18:14:24.687Z,17.88
2022-12-08T18:16:51.708Z,22.80
2022-12-08T18:19:18.615Z,20.65
2022-12-08T18:21:45.496Z,22.50
2022-12-08T18:24:18.995Z,29.58
2022-12-08T18:26:46.507Z,21.55
2022-12-08T18:29:13.334Z,34.08
2022-12-08T18:31:40.120Z,50.47
2022-12-08T18:34:06.929Z,33.40
2022-12-08T18:36:33.841Z,37.15
2022-12-08T18:39:03.388Z,27.05
2022-12-08T18:41:32.661Z,25.13
2022-12-08T18:43:59.416Z,26.42
2022-12-08T18:46:26.350Z,43.80
2022-12-08T18:48:53.600Z,41.67
2022-12-08T18:51:23.130Z,26.95
2022-12-08T18:53:50.659Z,34.20
2022-12-08T18:56:29.156Z,36.80
2022-12-08T18:59:02.966Z,40.50
2022-12-08T19:01:31.317Z,44.83
2022-12-08T19:04:26.839Z,43.38
2022-12-08T19:06:46.404Z,43.03
2022-12-08T19:09:14.111Z,38.45
2022-12-08T19:11:41.648Z,31.98
2022-12-08T19:14:09.402Z,34.38
2022-12-08T19:16:36.846Z,30.88
2022-12-08T19:19:04.518Z,38.33
2022-12-08T19:21:32.303Z,34.38
2022-12-08T19:23:59.939Z,29.63
2022-12-08T19:26:28.548Z,32.10
2022-12-08T19:28:55.929Z,35.50
2022-12-08T19:31:22.811Z,35.28
2022-12-08T19:33:49.769Z,45.78
2022-12-08T19:36:18.876Z,38.63
2022-12-08T19:39:04.142Z,35.08
2022-12-08T19:41:49.726Z,30.00
2022-12-08T19:44:36.653Z,27.47
2022-12-08T19:47:04.565Z,30.40
2022-12-08T19:49:31.821Z,31.83
2022-12-08T19:51:59.035Z,32.25
2022-12-08T19:54:25.992Z,23.50
2022-12-08T19:56:52.829Z,32.97
2022-12-08T19:59:20.380Z,25.42
2022-12-08T20:01:48.480Z,19.42
2022-12-08T20:04:16.328Z,18.50
2022-12-08T20:06:44.064Z,29.05
2022-12-08T20:09:12.120Z,15.02
2022-12-08T20:11:39.689Z,18.02
2022-12-08T20:14:06.941Z,27.13
2022-12-08T20:16:33.962Z,19.95
2022-12-08T20:19:01.294Z,25.88
2022-12-08T20:21:28.558Z,36.72
2022-12-08T20:23:55.658Z,41.35
2022-12-08T20:26:23.717Z,19.42
2022-12-08T20:28:51.285Z,41.10
2022-12-08T20:31:20.022Z,30.63
2022-12-08T20:33:47.799Z,16.02
2022-12-08T20:36:18.846Z,17.20
2022-12-08T20:38:47.035Z,16.33
2022-12-08T20:41:16.184Z,16.52
2022-12-08T20:43:47.475Z,19.30
2022-12-08T20:46:16.429Z,19.38
2022-12-08T20:48:43.871Z,21.73
2022-12-08T20:51:15.926Z,24.42
2022-12-08T20:53:43.078Z,16.25
2022-12-08T20:56:14.906Z,25.02
2022-12-08T20:58:42.868Z,35.22
2022-12-08T21:01:15.031Z,19.27
2022-12-08T21:03:43.051Z,20.45
2022-12-08T21:06:10.631Z,30.58
2022-12-08T21:08:38.445Z,20.65
2022-12-08T21:11:06.582Z,33.67
2022-12-08T21:13:33.859Z,44.05
2022-12-08T21:16:00.931Z,44.42
2022-12-08T21:18:27.982Z,47.33
2022-12-08T21:21:06.477Z,41.03
2022-12-08T21:23:34.120Z,39.95
2022-12-08T21:26:01.243Z,33.25
2022-12-08T21:28:28.294Z,30.60
2022-12-08T21:30:55.356Z,37.97
2022-12-08T21:33:22.380Z,40.90
2022-12-08T21:35:49.333Z,48.03
2022-12-08T21:38:16.468Z,37.03
2022-12-08T21:40:43.343Z,27.95
2022-12-08T21:43:10.151Z,26.27
2022-12-08T21:45:37.124Z,36.50
2022-12-08T21:48:10.931Z,36.92
2022-12-08T21:51:16.356Z,39.35
2022-12-08T21:53:46.665Z,50.30
2022-12-08T21:56:16.230Z,47.92
2022-12-08T21:58:46.457Z,41.80
2022-12-08T22:01:16.580Z,33.55
2022-12-08T22:03:44.097Z,38.50
2022-12-08T22:06:13.480Z,26.88
2022-12-08T22:08:44.324Z,46.08
2022-12-08T22:11:12.861Z,44.33
2022-12-08T22:13:44.178Z,68.28
2022-12-08T22:16:12.793Z,32.03
2022-12-08T22:18:43.950Z,45.03
2022-12-08T22:21:16.781Z,36.58
2022-12-08T22:23:46.712Z,50.67
2022-12-08T22:26:14.009Z,42.17
2022-12-08T22:28:45.231Z,42.95
2022-12-08T22:31:15.029Z,39.55
2022-12-08T22:33:42.736Z,42.53
2022-12-08T22:36:22.364Z,28.88
2022-12-08T22:38:50.150Z,35.63
2022-12-08T22:41:21.167Z,31.10
2022-12-08T22:43:49.205Z,37.47
2022-12-08T22:46:25.158Z,27.17
2022-12-08T22:51:20.763Z,39.95
2022-12-08T22:53:51.035Z,26.52
2022-12-08T22:56:19.232Z,29.77
2022-12-08T22:58:46.945Z,36.70
2022-12-08T23:01:24.562Z,39.05
2022-12-08T23:03:51.778Z,24.65
2022-12-08T23:06:19.176Z,23.67
2022-12-08T23:08:47.278Z,23.33
2022-12-08T23:11:14.909Z,23.27
2022-12-08T23:13:42.475Z,24.98
2022-12-08T23:16:11.127Z,24.13
2022-12-08T23:18:42.049Z,41.17
2022-12-08T23:21:12.207Z,24.88
2022-12-08T23:23:39.806Z,23.33
2022-12-08T23:26:27.325Z,20.05
2022-12-08T23:28:55.093Z,18.27
2022-12-08T23:31:22.512Z,17.48
2022-12-08T23:33:49.912Z,21.42
2022-12-08T23:36:18.856Z,18.98
2022-12-08T23:38:46.565Z,19.05
2022-12-08T23:41:15.688Z,19.45
2022-12-08T23:43:51.309Z,17.40
2022-12-08T23:46:20.391Z,16.85
2022-12-08T23:48:48.105Z,18.88
2022-12-08T23:51:15.965Z,18.55
2022-12-08T23:53:44.507Z,17.30
2022-12-08T23:56:15.563Z,18.02
2022-12-08T23:58:44.203Z,16.30
